createdAt,value
2018-03-30T00:00:46.589Z,41.10
2018-03-30T00:01:47.188Z,41.75
2018-03-30T00:02:36.239Z,35.67
2018-03-30T00:03:25.282Z,34.55
2018-03-30T00:04:14.420Z,31.70
2018-03-30T00:05:03.539Z,30.85
2018-03-30T00:05:52.589Z,27.80
2018-03-30T00:06:41.636Z,24.67
2018-03-30T00:07:30.687Z,30.92
2018-03-30T00:08:19.852Z,23.08
2018-03-30T00:09:08.959Z,25.33
2018-03-30T00:09:58.042Z,25.48
2018-03-30T00:10:52.520Z,27.40
2018-03-30T00:11:41.633Z,27.55
2018-03-30T00:12:30.760Z,26.85
2018-03-30T00:13:19.805Z,28.05
2018-03-30T00:14:08.868Z,24.05
2018-03-30T00:14:57.913Z,23.05
2018-03-30T00:15:46.968Z,27.10
2018-03-30T00:16:36.082Z,30.20
2018-03-30T00:17:25.123Z,29.55
2018-03-30T00:18:14.183Z,37.50
2018-03-30T00:19:03.227Z,52.88
2018-03-30T00:19:52.294Z,43.92
2018-03-30T00:20:41.340Z,42.95
2018-03-30T00:21:30.483Z,38.88
2018-03-30T00:22:19.563Z,45.33
2018-03-30T00:23:08.604Z,47.00
2018-03-30T00:23:57.747Z,62.47
2018-03-30T00:24:46.790Z,56.47
2018-03-30T00:25:35.860Z,54.65
2018-03-30T00:26:24.911Z,52.80
2018-03-30T00:27:14.001Z,58.22
2018-03-30T00:28:03.058Z,43.97
2018-03-30T00:28:52.099Z,37.88
2018-03-30T00:29:41.155Z,35.17
2018-03-30T00:30:30.213Z,28.80
2018-03-30T00:31:19.261Z,32.88
2018-03-30T00:32:08.301Z,35.45
2018-03-30T00:33:03.396Z,29.33
2018-03-30T00:33:52.437Z,36.50
2018-03-30T00:34:41.482Z,32.17
2018-03-30T00:35:30.532Z,30.73
2018-03-30T00:36:19.584Z,25.25
2018-03-30T00:37:08.628Z,21.12
2018-03-30T00:37:57.695Z,27.33
2018-03-30T00:38:46.927Z,29.08
2018-03-30T00:39:36.012Z,25.20
2018-03-30T00:40:25.049Z,25.35
2018-03-30T00:41:14.101Z,25.33
2018-03-30T00:42:03.144Z,32.53
2018-03-30T00:42:52.191Z,29.63
2018-03-30T00:43:41.243Z,28.08
2018-03-30T00:44:30.339Z,28.95
2018-03-30T00:45:19.390Z,27.52
2018-03-30T00:46:08.446Z,25.65
2018-03-30T00:46:57.493Z,28.12
2018-03-30T00:47:46.537Z,27.05
2018-03-30T00:48:35.584Z,29.25
2018-03-30T00:49:24.637Z,29.50
2018-03-30T00:50:13.798Z,25.62
2018-03-30T00:51:02.845Z,25.17
2018-03-30T00:51:51.897Z,25.17
2018-03-30T00:52:40.997Z,32.22
2018-03-30T00:53:54.694Z,27.73
2018-03-30T00:54:43.745Z,29.58
2018-03-30T00:55:32.890Z,26.83
2018-03-30T00:56:21.938Z,25.55
2018-03-30T00:57:10.990Z,28.55
2018-03-30T00:58:00.038Z,23.55
2018-03-30T00:58:49.089Z,26.17
2018-03-30T00:59:38.143Z,25.48
2018-03-30T01:00:27.187Z,27.92
2018-03-30T01:01:16.306Z,28.67
2018-03-30T01:02:05.367Z,31.23
2018-03-30T01:02:54.412Z,26.55
2018-03-30T01:03:43.481Z,28.67
2018-03-30T01:04:32.567Z,29.75
2018-03-30T01:05:21.687Z,25.75
2018-03-30T01:06:10.757Z,30.12
2018-03-30T01:06:59.852Z,28.83
2018-03-30T01:07:48.936Z,31.08
2018-03-30T01:08:38.012Z,26.30
2018-03-30T01:09:27.061Z,30.15
2018-03-30T01:10:16.106Z,34.05
2018-03-30T01:11:09.916Z,35.42
2018-03-30T01:11:58.977Z,32.92
2018-03-30T01:12:48.241Z,30.45
2018-03-30T01:13:37.288Z,30.73
2018-03-30T01:14:26.327Z,27.48
2018-03-30T01:15:15.373Z,25.48
2018-03-30T01:16:04.523Z,28.42
2018-03-30T01:16:53.570Z,26.17
2018-03-30T01:17:42.710Z,23.38
2018-03-30T01:18:31.878Z,25.90
2018-03-30T01:19:20.956Z,21.90
2018-03-30T01:20:10.026Z,22.73
2018-03-30T01:20:59.238Z,22.80
2018-03-30T01:21:48.291Z,22.85
2018-03-30T01:22:37.346Z,23.75
2018-03-30T01:23:26.402Z,22.23
2018-03-30T01:24:15.454Z,18.77
2018-03-30T01:25:04.506Z,22.48
2018-03-30T01:25:53.553Z,18.50
2018-03-30T01:26:42.662Z,22.25
2018-03-30T01:27:31.719Z,22.52
2018-03-30T01:28:23.734Z,22.42
2018-03-30T01:29:12.782Z,25.75
2018-03-30T01:30:01.858Z,20.30
2018-03-30T01:30:51.028Z,20.83
2018-03-30T01:31:40.151Z,20.05
2018-03-30T01:32:29.241Z,19.45
2018-03-30T01:33:18.285Z,19.98
2018-03-30T01:34:07.331Z,31.85
2018-03-30T01:34:56.398Z,149.87
2018-03-30T01:35:45.501Z,48.85
2018-03-30T01:36:34.548Z,30.73
2018-03-30T01:37:23.588Z,18.30
2018-03-30T01:38:15.760Z,22.48
2018-03-30T01:39:04.853Z,19.58
2018-03-30T01:39:53.938Z,28.55
2018-03-30T01:40:42.989Z,23.52
2018-03-30T01:41:32.048Z,29.17
2018-03-30T01:42:21.096Z,30.62
2018-03-30T01:43:10.149Z,31.10
2018-03-30T01:43:59.249Z,34.20
2018-03-30T01:44:48.297Z,30.10
2018-03-30T01:45:37.351Z,37.25
2018-03-30T01:46:26.438Z,32.00
2018-03-30T01:47:15.511Z,28.25
2018-03-30T01:48:04.560Z,29.20
2018-03-30T01:48:53.601Z,26.90
2018-03-30T01:49:42.649Z,23.15
2018-03-30T01:50:31.695Z,27.13
2018-03-30T01:51:20.743Z,27.48
2018-03-30T01:52:09.874Z,27.02
2018-03-30T01:52:58.934Z,30.92
2018-03-30T01:53:47.982Z,21.95
2018-03-30T01:54:37.031Z,19.95
2018-03-30T01:55:26.080Z,26.83
2018-03-30T01:56:15.130Z,23.00
2018-03-30T01:57:04.232Z,26.73
2018-03-30T01:57:53.378Z,25.08
2018-03-30T01:58:42.428Z,24.35
2018-03-30T01:59:31.473Z,22.73
2018-03-30T02:00:20.536Z,21.70
2018-03-30T02:01:09.583Z,21.02
2018-03-30T02:01:58.628Z,18.80
2018-03-30T02:02:47.673Z,21.98
2018-03-30T02:03:36.811Z,20.92
2018-03-30T02:04:25.881Z,17.73
2018-03-30T02:05:14.925Z,20.90
2018-03-30T02:06:04.001Z,20.05
2018-03-30T02:06:53.088Z,19.25
2018-03-30T02:07:42.139Z,28.02
2018-03-30T02:08:31.194Z,36.25
2018-03-30T02:09:20.293Z,33.65
2018-03-30T02:10:09.346Z,26.45
2018-03-30T02:10:58.396Z,30.00
2018-03-30T02:11:47.448Z,31.05
2018-03-30T02:12:36.526Z,28.77
2018-03-30T02:13:25.569Z,25.33
2018-03-30T02:14:14.617Z,28.12
2018-03-30T02:15:03.788Z,28.23
2018-03-30T02:15:52.833Z,29.20
2018-03-30T02:16:41.881Z,25.50
2018-03-30T02:17:30.926Z,30.90
2018-03-30T02:18:19.977Z,26.42
2018-03-30T02:19:09.036Z,25.65
2018-03-30T02:19:58.084Z,26.80
2018-03-30T02:20:47.746Z,28.70
2018-03-30T02:21:36.789Z,27.92
2018-03-30T02:22:25.840Z,28.48
2018-03-30T02:23:14.886Z,29.27
2018-03-30T02:24:03.948Z,27.92
2018-03-30T02:24:53.012Z,31.15
2018-03-30T02:25:42.076Z,32.95
2018-03-30T02:26:31.159Z,29.50
2018-03-30T02:27:20.357Z,25.77
2018-03-30T02:28:09.409Z,25.90
2018-03-30T02:28:58.453Z,27.60
2018-03-30T02:29:47.497Z,29.17
2018-03-30T02:30:36.554Z,28.73
2018-03-30T02:31:25.610Z,28.33
2018-03-30T02:32:14.687Z,23.40
2018-03-30T02:33:03.760Z,24.17
2018-03-30T02:33:52.818Z,27.10
2018-03-30T02:34:41.866Z,28.62
2018-03-30T02:35:30.910Z,27.45
2018-03-30T02:36:20.139Z,32.22
2018-03-30T02:37:09.189Z,37.20
2018-03-30T02:37:58.245Z,33.60
2018-03-30T02:38:47.292Z,36.58
2018-03-30T02:39:36.340Z,40.63
2018-03-30T02:40:25.455Z,38.35
2018-03-30T02:41:14.506Z,33.15
2018-03-30T02:42:03.558Z,36.63
2018-03-30T02:42:52.664Z,37.97
2018-03-30T02:43:41.714Z,59.75
2018-03-30T02:44:30.793Z,65.37
2018-03-30T02:45:19.857Z,82.43
2018-03-30T02:46:09.255Z,83.70
2018-03-30T02:46:58.317Z,103.87
2018-03-30T02:47:47.380Z,95.35
2018-03-30T02:48:36.615Z,59.20
2018-03-30T02:49:25.670Z,40.75
2018-03-30T02:50:14.734Z,39.67
2018-03-30T02:51:03.794Z,40.08
2018-03-30T02:51:52.846Z,43.53
2018-03-30T02:52:41.907Z,52.97
2018-03-30T02:53:30.955Z,76.07
2018-03-30T02:54:20.361Z,263.25
2018-03-30T02:55:09.413Z,130.02
2018-03-30T02:55:58.503Z,53.90
2018-03-30T02:56:47.584Z,50.47
2018-03-30T02:57:36.729Z,32.65
2018-03-30T02:58:25.718Z,34.65
2018-03-30T02:59:14.758Z,31.45
2018-03-30T03:00:03.858Z,27.80
2018-03-30T03:00:52.913Z,29.42
2018-03-30T03:01:42.019Z,31.30
2018-03-30T03:02:31.077Z,29.25
2018-03-30T03:03:20.124Z,31.15
2018-03-30T03:04:09.168Z,33.88
2018-03-30T03:04:58.318Z,36.45
2018-03-30T03:05:47.360Z,30.83
2018-03-30T03:06:36.411Z,39.40
2018-03-30T03:07:25.478Z,31.33
2018-03-30T03:08:14.536Z,37.20
2018-03-30T03:09:03.643Z,32.80
2018-03-30T03:09:52.717Z,31.50
2018-03-30T03:10:44.847Z,35.30
2018-03-30T03:11:33.920Z,29.83
2018-03-30T03:12:22.964Z,34.15
2018-03-30T03:13:12.007Z,38.58
2018-03-30T03:14:01.044Z,34.30
2018-03-30T03:14:50.093Z,30.98
2018-03-30T03:15:39.145Z,30.20
2018-03-30T03:16:28.261Z,27.08
2018-03-30T03:17:17.335Z,25.08
2018-03-30T03:18:06.385Z,25.35
2018-03-30T03:18:55.435Z,28.15
2018-03-30T03:19:44.492Z,24.33
2018-03-30T03:20:33.555Z,26.00
2018-03-30T03:21:22.704Z,25.73
2018-03-30T03:22:11.748Z,28.98
2018-03-30T03:23:00.791Z,30.98
2018-03-30T03:23:49.845Z,42.20
2018-03-30T03:24:38.896Z,37.00
2018-03-30T03:25:27.946Z,35.45
2018-03-30T03:26:16.995Z,33.88
2018-03-30T03:27:06.081Z,32.00
2018-03-30T03:27:55.135Z,33.13
2018-03-30T03:28:44.187Z,31.85
2018-03-30T03:29:33.236Z,31.60
2018-03-30T03:30:22.426Z,28.30
2018-03-30T03:31:11.471Z,29.35
2018-03-30T03:32:00.516Z,48.95
2018-03-30T03:32:49.602Z,58.42
2018-03-30T03:33:38.653Z,54.60
2018-03-30T03:34:27.706Z,92.05
2018-03-30T03:35:16.758Z,67.95
2018-03-30T03:36:05.821Z,55.65
2018-03-30T03:36:54.866Z,41.45
2018-03-30T03:37:43.913Z,43.38
2018-03-30T03:38:33.063Z,47.25
2018-03-30T03:39:22.108Z,44.97
2018-03-30T03:40:11.161Z,45.45
2018-03-30T03:41:00.214Z,52.40
2018-03-30T03:41:49.266Z,59.13
2018-03-30T03:42:40.700Z,77.90
2018-03-30T03:43:29.752Z,79.72
2018-03-30T03:44:18.938Z,72.15
2018-03-30T03:45:07.982Z,73.07
2018-03-30T03:45:57.030Z,72.53
2018-03-30T03:46:46.101Z,67.03
2018-03-30T03:47:35.163Z,78.32
2018-03-30T03:48:24.207Z,92.65
2018-03-30T03:49:13.253Z,80.68
2018-03-30T03:50:02.382Z,84.37
2018-03-30T03:50:51.449Z,90.07
2018-03-30T03:51:40.506Z,75.05
2018-03-30T03:52:29.552Z,84.18
2018-03-30T03:53:18.616Z,74.22
2018-03-30T03:54:07.974Z,64.55
2018-03-30T03:54:57.029Z,63.47
2018-03-30T03:55:46.095Z,76.97
2018-03-30T03:56:35.181Z,50.85
2018-03-30T03:57:24.222Z,113.37
2018-03-30T03:58:13.273Z,136.40
2018-03-30T03:59:02.330Z,58.67
2018-03-30T03:59:51.432Z,41.53
2018-03-30T04:00:40.483Z,29.77
2018-03-30T04:01:29.524Z,37.63
2018-03-30T04:02:18.570Z,31.33
2018-03-30T04:03:07.627Z,35.60
2018-03-30T04:03:56.681Z,31.60
2018-03-30T04:04:45.735Z,35.85
2018-03-30T04:05:34.947Z,35.30
2018-03-30T04:06:24.003Z,39.17
2018-03-30T04:07:13.095Z,43.25
2018-03-30T04:08:02.157Z,49.05
2018-03-30T04:08:51.234Z,51.13
2018-03-30T04:09:40.288Z,32.47
2018-03-30T04:10:29.345Z,41.15
2018-03-30T04:11:18.405Z,41.67
2018-03-30T04:12:07.463Z,50.25
2018-03-30T04:12:56.792Z,40.75
2018-03-30T04:13:45.854Z,36.03
2018-03-30T04:14:34.932Z,42.47
2018-03-30T04:15:23.984Z,35.10
2018-03-30T04:16:13.046Z,46.55
2018-03-30T04:17:02.093Z,36.58
2018-03-30T04:17:51.148Z,30.17
2018-03-30T04:18:40.240Z,31.67
2018-03-30T04:19:29.298Z,32.92
2018-03-30T04:20:18.349Z,31.67
2018-03-30T04:21:07.404Z,31.25
2018-03-30T04:21:56.461Z,29.70
2018-03-30T04:22:45.505Z,33.15
2018-03-30T04:23:34.565Z,30.52
2018-03-30T04:24:23.810Z,33.80
2018-03-30T04:25:12.874Z,37.83
2018-03-30T04:26:01.925Z,58.67
2018-03-30T04:26:50.981Z,116.03
2018-03-30T04:27:40.054Z,91.03
2018-03-30T04:28:29.110Z,56.20
2018-03-30T04:29:18.176Z,102.30
2018-03-30T04:30:07.400Z,93.78
2018-03-30T04:30:56.475Z,198.52
2018-03-30T04:31:45.545Z,146.20
2018-03-30T04:32:34.652Z,93.20
2018-03-30T04:33:23.729Z,50.50
2018-03-30T04:34:12.784Z,94.20
2018-03-30T04:35:01.890Z,78.68
2018-03-30T04:35:50.944Z,69.65
2018-03-30T04:36:40.018Z,60.42
2018-03-30T04:37:29.076Z,45.08
2018-03-30T04:38:18.127Z,45.90
2018-03-30T04:39:07.194Z,53.87
2018-03-30T04:39:56.257Z,40.97
2018-03-30T04:40:45.419Z,37.33
2018-03-30T04:41:34.471Z,35.17
2018-03-30T04:42:23.545Z,38.60
2018-03-30T04:43:12.606Z,39.33
2018-03-30T04:44:01.782Z,34.70
2018-03-30T04:44:51.101Z,41.25
2018-03-30T04:45:40.147Z,61.40
2018-03-30T04:46:29.248Z,60.35
2018-03-30T04:47:18.292Z,63.05
2018-03-30T04:48:07.341Z,58.05
2018-03-30T04:48:56.390Z,62.35
2018-03-30T04:49:45.431Z,43.90
2018-03-30T04:50:34.504Z,47.47
2018-03-30T04:51:24.453Z,59.78
2018-03-30T04:52:13.493Z,51.63
2018-03-30T04:53:02.543Z,47.72
2018-03-30T04:53:51.593Z,58.40
2018-03-30T04:54:40.639Z,152.55
2018-03-30T04:55:29.688Z,60.67
2018-03-30T04:56:18.762Z,42.62
2018-03-30T04:57:07.913Z,69.75
2018-03-30T04:57:56.963Z,57.53
2018-03-30T04:58:46.086Z,61.37
2018-03-30T04:59:35.137Z,65.37
2018-03-30T05:00:24.184Z,56.83
2018-03-30T05:01:13.246Z,56.33
2018-03-30T05:02:02.298Z,57.92
2018-03-30T05:02:51.377Z,66.53
2018-03-30T05:03:40.460Z,69.18
2018-03-30T05:04:29.567Z,68.15
2018-03-30T05:05:18.613Z,69.90
2018-03-30T05:06:07.655Z,79.43
2018-03-30T05:06:56.696Z,89.72
2018-03-30T05:07:45.750Z,82.28
2018-03-30T05:08:34.800Z,83.87
2018-03-30T05:09:23.959Z,85.38
2018-03-30T05:10:13.061Z,83.12
2018-03-30T05:11:02.168Z,76.22
2018-03-30T05:11:51.218Z,83.97
2018-03-30T05:12:40.301Z,80.40
2018-03-30T05:13:29.348Z,95.55
2018-03-30T05:14:18.401Z,103.80
2018-03-30T05:15:07.553Z,123.53
2018-03-30T05:15:56.626Z,110.25
2018-03-30T05:16:45.679Z,112.72
2018-03-30T05:17:34.733Z,115.30
2018-03-30T05:18:23.784Z,114.25
2018-03-30T05:19:12.833Z,105.28
2018-03-30T05:20:01.891Z,57.22
2018-03-30T05:20:51.093Z,42.20
2018-03-30T05:21:40.140Z,37.13
2018-03-30T05:22:29.194Z,48.05
2018-03-30T05:23:18.261Z,38.28
2018-03-30T05:24:07.308Z,46.67
2018-03-30T05:24:56.387Z,44.30
2018-03-30T05:25:45.425Z,49.30
2018-03-30T05:26:34.523Z,45.38
2018-03-30T05:27:23.561Z,49.90
2018-03-30T05:28:12.604Z,52.67
2018-03-30T05:29:01.658Z,63.50
2018-03-30T05:29:50.701Z,64.40
2018-03-30T05:30:39.873Z,79.00
2018-03-30T05:31:28.934Z,84.22
2018-03-30T05:32:18.037Z,111.85
2018-03-30T05:33:07.086Z,97.47
2018-03-30T05:33:56.154Z,100.93
2018-03-30T05:34:45.209Z,113.53
2018-03-30T05:35:34.266Z,105.55
2018-03-30T05:36:23.581Z,101.45
2018-03-30T05:37:12.640Z,90.60
2018-03-30T05:38:01.688Z,87.00
2018-03-30T05:38:50.733Z,88.75
2018-03-30T05:39:39.789Z,82.45
2018-03-30T05:40:28.841Z,81.87
2018-03-30T05:41:17.892Z,88.12
2018-03-30T05:42:06.980Z,51.35
2018-03-30T05:42:56.045Z,72.10
2018-03-30T05:43:45.097Z,69.37
2018-03-30T05:44:34.153Z,60.65
2018-03-30T05:45:23.196Z,54.30
2018-03-30T05:46:12.245Z,52.67
2018-03-30T05:47:01.299Z,63.00
2018-03-30T05:47:53.426Z,60.05
2018-03-30T05:48:42.495Z,51.37
2018-03-30T05:49:31.541Z,56.67
2018-03-30T05:50:20.582Z,53.42
2018-03-30T05:51:09.635Z,45.33
2018-03-30T05:51:58.681Z,40.78
2018-03-30T05:52:47.729Z,41.60
2018-03-30T05:53:36.835Z,37.03
2018-03-30T05:54:25.876Z,39.20
2018-03-30T05:55:15.016Z,37.47
2018-03-30T05:56:04.096Z,37.78
2018-03-30T05:56:53.246Z,45.10
2018-03-30T05:57:42.302Z,46.67
2018-03-30T05:58:31.358Z,43.25
2018-03-30T05:59:20.402Z,40.63
2018-03-30T06:00:09.453Z,34.08
2018-03-30T06:00:58.544Z,33.38
2018-03-30T06:01:47.591Z,31.75
2018-03-30T06:02:36.641Z,41.47
2018-03-30T06:03:25.682Z,37.25
2018-03-30T06:04:14.734Z,40.95
2018-03-30T06:05:03.794Z,34.28
2018-03-30T06:05:52.844Z,42.25
2018-03-30T06:06:41.932Z,34.20
2018-03-30T06:07:30.981Z,34.28
2018-03-30T06:08:20.051Z,30.95
2018-03-30T06:09:09.116Z,26.92
2018-03-30T06:09:58.164Z,33.00
2018-03-30T06:10:47.220Z,28.83
2018-03-30T06:11:36.265Z,46.95
2018-03-30T06:12:25.410Z,45.58
2018-03-30T06:13:14.459Z,44.17
2018-03-30T06:14:03.501Z,33.95
2018-03-30T06:14:52.583Z,27.05
2018-03-30T06:15:41.623Z,22.75
2018-03-30T06:16:30.662Z,25.08
2018-03-30T06:17:19.953Z,25.08
2018-03-30T06:18:12.062Z,24.90
2018-03-30T06:19:01.171Z,20.67
2018-03-30T06:19:50.202Z,25.58
2018-03-30T06:20:39.249Z,19.60
2018-03-30T06:21:28.304Z,22.73
2018-03-30T06:22:17.354Z,20.23
2018-03-30T06:23:06.401Z,20.02
2018-03-30T06:23:55.503Z,22.65
2018-03-30T06:24:44.541Z,20.60
2018-03-30T06:25:33.594Z,17.98
2018-03-30T06:26:22.688Z,24.23
2018-03-30T06:27:11.770Z,28.70
2018-03-30T06:28:00.817Z,49.58
2018-03-30T06:28:49.870Z,28.62
2018-03-30T06:29:38.928Z,24.95
2018-03-30T06:30:27.969Z,26.48
2018-03-30T06:31:17.011Z,26.67
2018-03-30T06:32:06.186Z,24.50
2018-03-30T06:32:55.232Z,24.77
2018-03-30T06:33:44.277Z,26.50
2018-03-30T06:34:33.345Z,32.58
2018-03-30T06:35:22.406Z,24.02
2018-03-30T06:36:11.463Z,46.95
2018-03-30T06:37:00.636Z,50.05
2018-03-30T06:37:49.687Z,36.22
2018-03-30T06:38:38.782Z,70.15
2018-03-30T06:39:27.824Z,67.32
2018-03-30T06:40:16.865Z,48.63
2018-03-30T06:41:05.915Z,43.58
2018-03-30T06:41:54.964Z,48.50
2018-03-30T06:42:44.016Z,37.63
2018-03-30T06:43:33.186Z,40.97
2018-03-30T06:44:22.238Z,44.25
2018-03-30T06:45:11.276Z,41.37
2018-03-30T06:46:00.325Z,44.28
2018-03-30T06:46:49.369Z,42.97
2018-03-30T06:47:38.420Z,45.92
2018-03-30T06:48:27.480Z,44.05
2018-03-30T06:49:16.564Z,41.25
2018-03-30T06:50:05.609Z,49.33
2018-03-30T06:50:54.662Z,49.38
2018-03-30T06:51:43.721Z,53.50
2018-03-30T06:52:32.789Z,59.78
2018-03-30T06:53:21.835Z,58.53
2018-03-30T06:54:10.890Z,50.15
2018-03-30T06:55:00.039Z,64.82
2018-03-30T06:55:49.084Z,52.28
2018-03-30T06:56:38.214Z,55.20
2018-03-30T06:57:27.263Z,56.97
2018-03-30T06:58:16.338Z,49.53
2018-03-30T06:59:05.414Z,54.22
2018-03-30T06:59:54.507Z,55.67
2018-03-30T07:00:43.533Z,50.67
2018-03-30T07:01:32.582Z,45.80
2018-03-30T07:02:21.629Z,44.20
2018-03-30T07:03:10.741Z,44.90
2018-03-30T07:03:59.800Z,28.58
2018-03-30T07:04:48.843Z,30.45
2018-03-30T07:05:37.892Z,20.10
2018-03-30T07:06:26.941Z,19.17
2018-03-30T07:07:15.984Z,25.42
2018-03-30T07:08:05.064Z,20.98
2018-03-30T07:08:54.176Z,13.13
2018-03-30T07:09:43.251Z,22.65
2018-03-30T07:10:32.293Z,26.10
2018-03-30T07:11:21.342Z,20.98
2018-03-30T07:12:10.388Z,20.50
2018-03-30T07:12:59.433Z,27.05
2018-03-30T07:13:48.492Z,38.03
2018-03-30T07:14:37.711Z,39.33
2018-03-30T07:15:26.761Z,31.62
2018-03-30T07:16:15.805Z,24.73
2018-03-30T07:17:04.845Z,25.80
2018-03-30T07:17:53.952Z,21.15
2018-03-30T07:18:43.001Z,25.62
2018-03-30T07:19:32.052Z,19.67
2018-03-30T07:20:21.099Z,25.65
2018-03-30T07:21:10.197Z,25.10
2018-03-30T07:21:59.237Z,35.88
2018-03-30T07:22:48.285Z,33.92
2018-03-30T07:23:37.327Z,46.47
2018-03-30T07:24:26.382Z,51.15
2018-03-30T07:25:15.521Z,31.45
2018-03-30T07:26:04.594Z,23.45
2018-03-30T07:26:53.654Z,30.73
2018-03-30T07:27:42.702Z,26.55
2018-03-30T07:28:31.748Z,32.90
2018-03-30T07:29:20.802Z,29.70
2018-03-30T07:30:09.957Z,24.37
2018-03-30T07:30:59.006Z,20.92
2018-03-30T07:31:48.052Z,24.08
2018-03-30T07:32:37.101Z,22.02
2018-03-30T07:33:26.155Z,21.52
2018-03-30T07:34:15.270Z,23.90
2018-03-30T07:35:04.317Z,21.00
2018-03-30T07:35:53.359Z,19.83
2018-03-30T07:36:42.413Z,17.90
2018-03-30T07:37:31.456Z,17.50
2018-03-30T07:38:20.498Z,20.12
2018-03-30T07:39:09.544Z,16.87
2018-03-30T07:39:58.692Z,16.27
2018-03-30T07:40:47.737Z,21.17
2018-03-30T07:41:36.789Z,22.77
2018-03-30T07:42:25.896Z,21.80
2018-03-30T07:43:15.013Z,22.62
2018-03-30T07:44:04.127Z,18.42
2018-03-30T07:44:53.236Z,15.75
2018-03-30T07:45:42.459Z,17.10
2018-03-30T07:46:31.581Z,17.42
2018-03-30T07:47:20.771Z,14.27
2018-03-30T07:48:09.888Z,13.48
2018-03-30T07:48:59.014Z,14.52
2018-03-30T07:49:48.149Z,15.13
2018-03-30T07:50:37.257Z,12.70
2018-03-30T07:51:26.514Z,12.88
2018-03-30T07:52:15.989Z,13.85
2018-03-30T07:53:06.365Z,33.72
2018-03-30T07:53:58.629Z,18.33
2018-03-30T07:54:48.728Z,16.40
2018-03-30T07:55:37.992Z,13.55
2018-03-30T07:56:27.110Z,15.85
2018-03-30T07:57:16.212Z,15.65
2018-03-30T07:58:05.335Z,14.13
2018-03-30T07:58:54.643Z,14.10
2018-03-30T07:59:43.760Z,17.20
2018-03-30T08:00:32.875Z,15.32
2018-03-30T08:01:21.992Z,19.92
2018-03-30T08:02:11.104Z,16.75
2018-03-30T08:03:00.226Z,16.80
2018-03-30T08:03:49.510Z,17.80
2018-03-30T08:04:38.717Z,21.10
2018-03-30T08:05:27.893Z,20.98
2018-03-30T08:06:16.976Z,17.17
2018-03-30T08:07:06.174Z,14.70
2018-03-30T08:07:55.270Z,17.95
2018-03-30T08:08:44.364Z,16.12
2018-03-30T08:09:33.708Z,19.15
2018-03-30T08:10:22.881Z,23.45
2018-03-30T08:11:11.941Z,18.55
2018-03-30T08:12:01.039Z,21.73
2018-03-30T08:12:50.119Z,21.17
2018-03-30T08:13:39.246Z,17.77
2018-03-30T08:14:28.310Z,16.58
2018-03-30T08:15:17.377Z,14.40
2018-03-30T08:16:06.450Z,16.70
2018-03-30T08:16:55.548Z,18.50
2018-03-30T08:17:44.838Z,14.68
2018-03-30T08:18:33.900Z,15.05
2018-03-30T08:19:23.014Z,15.10
2018-03-30T08:20:12.073Z,16.80
2018-03-30T08:21:01.158Z,15.38
2018-03-30T08:21:50.219Z,16.12
2018-03-30T08:22:39.439Z,17.23
2018-03-30T08:23:28.502Z,15.57
2018-03-30T08:24:17.564Z,14.98
2018-03-30T08:25:06.655Z,23.80
2018-03-30T08:25:55.803Z,15.60
2018-03-30T08:26:44.879Z,16.30
2018-03-30T08:27:33.945Z,23.17
2018-03-30T08:28:23.002Z,21.10
2018-03-30T08:29:12.063Z,20.85
2018-03-30T08:30:01.191Z,19.48
2018-03-30T08:30:50.265Z,20.30
2018-03-30T08:31:39.327Z,14.75
2018-03-30T08:32:28.414Z,19.70
2018-03-30T08:33:17.474Z,15.73
2018-03-30T08:34:06.534Z,19.30
2018-03-30T08:34:55.699Z,18.45
2018-03-30T08:35:44.764Z,16.55
2018-03-30T08:36:33.826Z,15.48
2018-03-30T08:37:22.889Z,15.15
2018-03-30T08:38:11.966Z,18.17
2018-03-30T08:39:01.022Z,17.10
2018-03-30T08:39:50.081Z,19.33
2018-03-30T08:40:39.241Z,17.92
2018-03-30T08:41:28.297Z,20.45
2018-03-30T08:42:17.407Z,19.05
2018-03-30T08:43:06.463Z,24.00
2018-03-30T08:43:55.520Z,19.58
2018-03-30T08:44:44.571Z,18.92
2018-03-30T08:45:33.629Z,18.00
2018-03-30T08:46:22.742Z,19.42
2018-03-30T08:47:11.805Z,14.40
2018-03-30T08:48:00.860Z,18.00
2018-03-30T08:48:50.008Z,21.10
2018-03-30T08:49:39.101Z,18.58
2018-03-30T08:50:28.149Z,16.52
2018-03-30T08:51:17.227Z,19.10
2018-03-30T08:52:06.377Z,22.50
2018-03-30T08:52:55.428Z,18.35
2018-03-30T08:53:44.502Z,17.67
2018-03-30T08:54:33.554Z,18.33
2018-03-30T08:55:22.628Z,15.73
2018-03-30T08:56:11.734Z,16.40
2018-03-30T08:57:00.773Z,16.48
2018-03-30T08:57:50.109Z,15.18
2018-03-30T08:58:39.177Z,19.23
2018-03-30T08:59:28.237Z,16.10
2018-03-30T09:00:17.302Z,21.20
2018-03-30T09:01:06.353Z,17.15
2018-03-30T09:01:55.414Z,21.42
2018-03-30T09:02:44.497Z,22.00
2018-03-30T09:03:33.549Z,17.92
2018-03-30T09:04:22.624Z,19.60
2018-03-30T09:05:11.678Z,17.83
2018-03-30T09:06:00.731Z,19.95
2018-03-30T09:06:49.790Z,17.83
2018-03-30T09:07:38.848Z,24.65
2018-03-30T09:08:28.009Z,21.35
2018-03-30T09:09:17.085Z,27.13
2018-03-30T09:10:06.256Z,21.20
2018-03-30T09:10:55.309Z,23.42
2018-03-30T09:11:44.366Z,25.55
2018-03-30T09:12:33.425Z,65.40
2018-03-30T09:13:22.516Z,23.30
2018-03-30T09:14:11.741Z,31.85
2018-03-30T09:15:00.807Z,26.48
2018-03-30T09:15:49.861Z,39.28
2018-03-30T09:16:38.937Z,19.73
2018-03-30T09:17:27.994Z,17.17
2018-03-30T09:18:17.088Z,18.05
2018-03-30T09:19:06.161Z,17.23
2018-03-30T09:19:55.213Z,17.35
2018-03-30T09:20:44.274Z,21.52
2018-03-30T09:21:33.337Z,22.23
2018-03-30T09:22:22.402Z,19.73
2018-03-30T09:23:11.460Z,19.52
2018-03-30T09:24:00.618Z,16.85
2018-03-30T09:24:49.675Z,24.15
2018-03-30T09:25:38.737Z,25.08
2018-03-30T09:26:27.856Z,25.15
2018-03-30T09:27:16.934Z,21.02
2018-03-30T09:28:05.997Z,17.77
2018-03-30T09:28:55.061Z,19.98
2018-03-30T09:29:49.624Z,21.55
2018-03-30T09:30:38.698Z,20.17
2018-03-30T09:31:27.771Z,19.45
2018-03-30T09:32:16.819Z,20.30
2018-03-30T09:33:05.894Z,18.83
2018-03-30T09:33:54.958Z,15.82
2018-03-30T09:34:44.073Z,17.27
2018-03-30T09:35:33.130Z,15.77
2018-03-30T09:36:22.198Z,19.37
2018-03-30T09:37:11.257Z,19.37
2018-03-30T09:38:00.306Z,20.12
2018-03-30T09:38:49.414Z,21.73
2018-03-30T09:39:38.521Z,17.52
2018-03-30T09:40:27.574Z,15.05
2018-03-30T09:41:16.630Z,34.42
2018-03-30T09:42:05.691Z,23.30
2018-03-30T09:42:54.833Z,14.65
2018-03-30T09:43:43.923Z,12.85
2018-03-30T09:44:32.978Z,15.60
2018-03-30T09:45:22.041Z,13.48
2018-03-30T09:46:11.089Z,11.02
2018-03-30T09:47:00.133Z,10.23
2018-03-30T09:47:49.181Z,16.80
2018-03-30T09:48:38.281Z,13.73
2018-03-30T09:49:27.334Z,15.18
2018-03-30T09:50:16.389Z,12.77
2018-03-30T09:51:05.452Z,12.37
2018-03-30T09:51:54.512Z,14.30
2018-03-30T09:52:43.560Z,11.93
2018-03-30T09:53:32.612Z,14.02
2018-03-30T09:54:21.693Z,12.25
2018-03-30T09:55:10.753Z,12.15
2018-03-30T09:55:59.805Z,11.90
2018-03-30T09:56:48.862Z,10.05
2018-03-30T09:57:37.918Z,9.88
2018-03-30T09:58:26.971Z,11.90
2018-03-30T09:59:16.019Z,9.18
2018-03-30T10:00:05.181Z,12.05
2018-03-30T10:02:08.788Z,13.73
2018-03-30T10:02:57.903Z,10.10
2018-03-30T10:03:48.958Z,10.75
2018-03-30T10:04:44.565Z,11.35
2018-03-30T10:05:33.835Z,12.90
2018-03-30T10:06:23.267Z,16.85
2018-03-30T10:07:13.218Z,13.70
2018-03-30T10:08:02.685Z,17.20
2018-03-30T10:08:52.120Z,13.62
2018-03-30T10:09:41.558Z,11.85
2018-03-30T10:10:30.964Z,12.13
2018-03-30T10:11:26.878Z,14.20
2018-03-30T10:12:20.559Z,11.98
2018-03-30T10:13:09.805Z,16.50
2018-03-30T10:13:59.047Z,12.57
2018-03-30T10:14:48.273Z,11.55
2018-03-30T10:15:37.527Z,11.50
2018-03-30T10:16:26.731Z,13.80
2018-03-30T10:17:15.801Z,13.88
2018-03-30T10:18:04.930Z,14.48
2018-03-30T10:18:53.999Z,14.45
2018-03-30T10:19:43.081Z,14.45
2018-03-30T10:20:32.163Z,14.48
2018-03-30T10:21:22.047Z,25.40
2018-03-30T10:22:11.131Z,14.90
2018-03-30T10:23:00.220Z,11.05
2018-03-30T10:23:49.297Z,10.57
2018-03-30T10:24:38.453Z,10.90
2018-03-30T10:25:27.537Z,11.20
2018-03-30T10:26:16.780Z,12.50
2018-03-30T10:27:05.861Z,11.25
2018-03-30T10:27:54.931Z,10.63
2018-03-30T10:28:44.010Z,9.80
2018-03-30T10:29:33.085Z,10.65
2018-03-30T10:30:22.227Z,13.20
2018-03-30T10:31:11.268Z,9.60
2018-03-30T10:32:00.465Z,9.48
2018-03-30T10:32:49.542Z,14.95
2018-03-30T10:33:38.610Z,9.55
2018-03-30T10:34:27.682Z,14.10
2018-03-30T10:35:16.750Z,12.18